sensor_id;sensor_type;location;lat;lon;timestamp;pressure;altitude;pressure_sealevel;temperature;humidity
58879;BME280;44660;42.664;23.266;2023-02-04T15:59:03;94158.56;;;1.24;62.43
58879;BME280;44660;42.664;23.266;2023-02-04T16:01:30;94141.25;;;1.23;62.24
58879;BME280;44660;42.664;23.266;2023-02-04T16:03:56;94152.19;;;1.40;63.01
58879;BME280;44660;42.664;23.266;2023-02-04T16:06:23;94158.47;;;1.46;61.95
58879;BME280;44660;42.664;23.266;2023-02-04T16:08:58;94172.38;;;1.40;61.60
58879;BME280;44660;42.664;23.266;2023-02-04T16:11:24;94193.59;;;1.58;61.10
58879;BME280;44660;42.664;23.266;2023-02-04T16:13:49;94184.09;;;1.51;60.76
58879;BME280;44660;42.664;23.266;2023-02-04T16:16:15;94177.59;;;1.40;60.26
58879;BME280;44660;42.664;23.266;2023-02-04T16:18:41;94184.81;;;1.31;60.02
58879;BME280;44660;42.664;23.266;2023-02-04T16:21:06;94148.72;;;0.91;59.62
58879;BME280;44660;42.664;23.266;2023-02-04T16:23:32;94217.50;;;1.42;59.56
58879;BME280;44660;42.664;23.266;2023-02-04T16:25:57;94214.06;;;1.35;58.91
58879;BME280;44660;42.664;23.266;2023-02-04T16:28:22;94162.97;;;0.82;58.59
58879;BME280;44660;42.664;23.266;2023-02-04T16:30:48;94140.84;;;0.56;59.27
58879;BME280;44660;42.664;23.266;2023-02-04T16:33:14;94212.53;;;1.19;59.14
58879;BME280;44660;42.664;23.266;2023-02-04T16:35:57;94184.72;;;0.83;58.55
58879;BME280;44660;42.664;23.266;2023-02-04T16:38:23;94208.69;;;0.86;58.97
58879;BME280;44660;42.664;23.266;2023-02-04T16:40:49;94197.75;;;0.76;58.99
58879;BME280;44660;42.664;23.266;2023-02-04T16:43:14;94224.59;;;0.85;59.63
58879;BME280;44660;42.664;23.266;2023-02-04T16:45:40;94226.44;;;0.84;59.89
58879;BME280;44660;42.664;23.266;2023-02-04T16:48:05;94211.84;;;0.75;59.79
58879;BME280;44660;42.664;23.266;2023-02-04T16:50:31;94235.03;;;0.78;59.86
58879;BME280;44660;42.664;23.266;2023-02-04T16:52:56;94198.16;;;0.73;60.01
58879;BME280;44660;42.664;23.266;2023-02-04T16:55:21;94189.06;;;0.47;60.26
58879;BME280;44660;42.664;23.266;2023-02-04T16:57:47;94224.19;;;0.59;60.78
58879;BME280;44660;42.664;23.266;2023-02-04T17:00:13;94227.53;;;0.75;60.56
58879;BME280;44660;42.664;23.266;2023-02-04T17:02:38;94260.50;;;0.91;60.50
58879;BME280;44660;42.664;23.266;2023-02-04T17:05:04;94240.25;;;0.78;60.12
58879;BME280;44660;42.664;23.266;2023-02-04T17:07:30;94263.06;;;0.84;60.42
58879;BME280;44660;42.664;23.266;2023-02-04T17:09:55;94265.38;;;0.72;60.22
58879;BME280;44660;42.664;23.266;2023-02-04T17:12:21;94266.88;;;0.81;59.80
58879;BME280;44660;42.664;23.266;2023-02-04T17:14:46;94255.41;;;0.83;60.01
58879;BME280;44660;42.664;23.266;2023-02-04T17:17:11;94261.22;;;0.78;60.09
58879;BME280;44660;42.664;23.266;2023-02-04T17:19:37;94266.06;;;0.81;60.29
58879;BME280;44660;42.664;23.266;2023-02-04T17:22:02;94247.63;;;0.68;60.28
58879;BME280;44660;42.664;23.266;2023-02-04T17:24:28;94258.84;;;0.61;60.82
58879;BME280;44660;42.664;23.266;2023-02-04T17:26:53;94279.88;;;0.75;60.76
58879;BME280;44660;42.664;23.266;2023-02-04T17:29:19;94247.66;;;0.46;60.93
58879;BME280;44660;42.664;23.266;2023-02-04T17:31:47;94244.94;;;0.39;61.17
58879;BME280;44660;42.664;23.266;2023-02-04T17:34:12;94285.47;;;0.65;61.02
58879;BME280;44660;42.664;23.266;2023-02-04T17:36:38;94275.16;;;0.63;61.25
58879;BME280;44660;42.664;23.266;2023-02-04T17:39:04;94274.84;;;0.52;61.56
58879;BME280;44660;42.664;23.266;2023-02-04T17:41:30;94244.34;;;0.15;61.41
58879;BME280;44660;42.664;23.266;2023-02-04T17:43:55;94278.16;;;0.39;61.58
58879;BME280;44660;42.664;23.266;2023-02-04T17:46:21;94272.44;;;0.50;61.13
58879;BME280;44660;42.664;23.266;2023-02-04T17:48:47;94261.09;;;0.43;61.10
58879;BME280;44660;42.664;23.266;2023-02-04T17:51:12;94282.41;;;0.40;60.88
58879;BME280;44660;42.664;23.266;2023-02-04T17:53:38;94270.06;;;0.55;60.62
58879;BME280;44660;42.664;23.266;2023-02-04T17:56:08;94250.75;;;0.35;60.20
58879;BME280;44660;42.664;23.266;2023-02-04T17:58:34;94300.78;;;0.68;59.57
58879;BME280;44660;42.664;23.266;2023-02-04T18:01:14;94306.91;;;0.75;59.15
58879;BME280;44660;42.664;23.266;2023-02-04T18:03:40;94310.88;;;0.71;58.92
58879;BME280;44660;42.664;23.266;2023-02-04T18:06:21;94292.94;;;0.46;58.69
58879;BME280;44660;42.664;23.266;2023-02-04T18:08:49;94297.81;;;0.50;58.85
58879;BME280;44660;42.664;23.266;2023-02-04T18:11:18;94230.19;;;0.10;58.74
58879;BME280;44660;42.664;23.266;2023-02-04T18:13:45;94311.44;;;0.67;58.88
58879;BME280;44660;42.664;23.266;2023-02-04T18:18:45;94294.75;;;0.68;58.38
58879;BME280;44660;42.664;23.266;2023-02-04T18:21:30;94297.72;;;0.64;58.24
58879;BME280;44660;42.664;23.266;2023-02-04T18:24:35;94239.78;;;0.24;58.15
58879;BME280;44660;42.664;23.266;2023-02-04T18:27:17;94304.22;;;0.90;58.05
58879;BME280;44660;42.664;23.266;2023-02-04T18:29:47;94309.31;;;0.98;57.84
58879;BME280;44660;42.664;23.266;2023-02-04T18:32:32;94265.31;;;0.65;57.95
58879;BME280;44660;42.664;23.266;2023-02-04T18:35:02;94285.69;;;0.92;57.67
58879;BME280;44660;42.664;23.266;2023-02-04T18:37:45;94289.97;;;1.00;57.40
58879;BME280;44660;42.664;23.266;2023-02-04T18:40:28;94306.81;;;1.12;57.61
58879;BME280;44660;42.664;23.266;2023-02-04T18:45:44;94311.84;;;1.42;56.79
58879;BME280;44660;42.664;23.266;2023-02-04T18:50:48;94263.72;;;1.14;56.48
58879;BME280;44660;42.664;23.266;2023-02-04T18:55:48;94280.13;;;1.30;56.32
58879;BME280;44660;42.664;23.266;2023-02-04T18:58:32;94293.66;;;1.34;56.39
58879;BME280;44660;42.664;23.266;2023-02-04T19:03:53;94295.56;;;1.18;56.65
58879;BME280;44660;42.664;23.266;2023-02-04T19:11:43;94293.59;;;0.98;57.44
58879;BME280;44660;42.664;23.266;2023-02-04T19:16:57;94247.16;;;0.57;57.83
58879;BME280;44660;42.664;23.266;2023-02-04T19:22:18;94295.69;;;0.60;58.76
58879;BME280;44660;42.664;23.266;2023-02-04T19:24:44;94225.09;;;0.23;58.64
58879;BME280;44660;42.664;23.266;2023-02-04T19:27:33;94321.66;;;0.83;58.99
58879;BME280;44660;42.664;23.266;2023-02-04T19:30:02;94330.16;;;0.85;59.36
58879;BME280;44660;42.664;23.266;2023-02-04T19:32:46;94330.91;;;0.79;60.78
58879;BME280;44660;42.664;23.266;2023-02-04T19:35:19;94330.63;;;0.95;61.23
58879;BME280;44660;42.664;23.266;2023-02-04T19:37:59;94340.91;;;0.97;62.23
58879;BME280;44660;42.664;23.266;2023-02-04T19:40:35;94336.63;;;0.89;63.47
58879;BME280;44660;42.664;23.266;2023-02-04T19:43:20;94339.59;;;0.86;63.83
58879;BME280;44660;42.664;23.266;2023-02-04T19:45:48;94343.34;;;0.77;64.46
58879;BME280;44660;42.664;23.266;2023-02-04T19:48:32;94335.06;;;0.73;65.13
58879;BME280;44660;42.664;23.266;2023-02-04T19:51:14;94336.25;;;0.71;64.95
58879;BME280;44660;42.664;23.266;2023-02-04T19:53:41;94332.47;;;0.58;65.62
58879;BME280;44660;42.664;23.266;2023-02-04T19:58:58;94359.03;;;0.55;64.83
58879;BME280;44660;42.664;23.266;2023-02-04T20:01:28;94344.09;;;0.34;63.78
58879;BME280;44660;42.664;23.266;2023-02-04T20:03:53;94311.50;;;0.15;64.39
58879;BME280;44660;42.664;23.266;2023-02-04T20:06:26;94357.81;;;0.36;64.95
58879;BME280;44660;42.664;23.266;2023-02-04T20:08:55;94364.78;;;0.29;64.14
58879;BME280;44660;42.664;23.266;2023-02-04T20:11:41;94357.84;;;0.21;64.52
58879;BME280;44660;42.664;23.266;2023-02-04T20:16:56;94338.22;;;-0.05;63.73
58879;BME280;44660;42.664;23.266;2023-02-04T20:22:23;94364.38;;;-0.05;63.70
58879;BME280;44660;42.664;23.266;2023-02-04T20:24:55;94332.84;;;-0.48;63.99
58879;BME280;44660;42.664;23.266;2023-02-04T20:30:24;94363.13;;;-0.24;64.42
58879;BME280;44660;42.664;23.266;2023-02-04T20:32:53;94385.63;;;-0.08;64.54
58879;BME280;44660;42.664;23.266;2023-02-04T20:37:50;94409.78;;;-0.21;66.25
58879;BME280;44660;42.664;23.266;2023-02-04T20:40:41;94412.56;;;-0.37;67.06
58879;BME280;44660;42.664;23.266;2023-02-04T20:43:16;94410.50;;;-0.42;67.35
58879;BME280;44660;42.664;23.266;2023-02-04T20:50:46;94356.59;;;-0.96;67.01
58879;BME280;44660;42.664;23.266;2023-02-04T20:55:58;94390.91;;;-0.99;66.96
58879;BME280;44660;42.664;23.266;2023-02-04T20:58:27;94436.91;;;-0.75;66.10
58879;BME280;44660;42.664;23.266;2023-02-04T21:00:53;94411.06;;;-0.93;66.16
58879;BME280;44660;42.664;23.266;2023-02-04T21:03:46;94420.34;;;-0.90;66.19
58879;BME280;44660;42.664;23.266;2023-02-04T21:06:25;94436.59;;;-1.03;66.47
58879;BME280;44660;42.664;23.266;2023-02-04T21:08:53;94410.66;;;-1.05;66.15
58879;BME280;44660;42.664;23.266;2023-02-04T21:11:18;94432.38;;;-0.81;66.76
58879;BME280;44660;42.664;23.266;2023-02-04T21:13:44;94373.31;;;-1.28;66.95
58879;BME280;44660;42.664;23.266;2023-02-04T21:16:10;94406.81;;;-1.17;66.68
58879;BME280;44660;42.664;23.266;2023-02-04T21:18:35;94445.09;;;-1.09;65.50
58879;BME280;44660;42.664;23.266;2023-02-04T21:21:06;94429.69;;;-1.19;64.43
58879;BME280;44660;42.664;23.266;2023-02-04T21:23:32;94444.22;;;-1.25;63.57
58879;BME280;44660;42.664;23.266;2023-02-04T21:25:59;94392.75;;;-1.62;62.78
58879;BME280;44660;42.664;23.266;2023-02-04T21:28:24;94443.72;;;-1.20;62.75
58879;BME280;44660;42.664;23.266;2023-02-04T21:30:50;94428.50;;;-1.40;62.60
58879;BME280;44660;42.664;23.266;2023-02-04T21:33:15;94438.91;;;-1.40;62.13
58879;BME280;44660;42.664;23.266;2023-02-04T21:35:41;94451.88;;;-1.23;62.78
58879;BME280;44660;42.664;23.266;2023-02-04T21:38:06;94454.84;;;-1.26;62.85
58879;BME280;44660;42.664;23.266;2023-02-04T21:40:34;94457.88;;;-1.15;62.73
58879;BME280;44660;42.664;23.266;2023-02-04T21:43:00;94406.63;;;-1.39;63.43
58879;BME280;44660;42.664;23.266;2023-02-04T21:45:30;94364.47;;;-1.74;63.32
58879;BME280;44660;42.664;23.266;2023-02-04T21:47:55;94458.22;;;-1.18;63.88
58879;BME280;44660;42.664;23.266;2023-02-04T21:50:21;94323.59;;;-2.13;64.92
58879;BME280;44660;42.664;23.266;2023-02-04T21:52:47;94477.94;;;-1.15;64.84
58879;BME280;44660;42.664;23.266;2023-02-04T21:55:14;94437.66;;;-1.44;65.35
58879;BME280;44660;42.664;23.266;2023-02-04T21:57:40;94470.50;;;-1.26;65.92
58879;BME280;44660;42.664;23.266;2023-02-04T22:00:07;94487.09;;;-1.19;65.97
58879;BME280;44660;42.664;23.266;2023-02-04T22:02:33;94480.56;;;-1.15;65.56
58879;BME280;44660;42.664;23.266;2023-02-04T22:04:59;94475.72;;;-1.26;64.73
58879;BME280;44660;42.664;23.266;2023-02-04T22:07:24;94492.31;;;-1.19;64.47
58879;BME280;44660;42.664;23.266;2023-02-04T22:09:50;94465.66;;;-1.38;64.53
58879;BME280;44660;42.664;23.266;2023-02-04T22:12:16;94458.69;;;-1.45;64.09
58879;BME280;44660;42.664;23.266;2023-02-04T22:14:42;94502.69;;;-1.03;64.03
58879;BME280;44660;42.664;23.266;2023-02-04T22:17:26;94455.41;;;-1.39;63.57
58879;BME280;44660;42.664;23.266;2023-02-04T22:19:51;94507.06;;;-1.03;62.80
58879;BME280;44660;42.664;23.266;2023-02-04T22:22:17;94476.19;;;-1.23;62.42
58879;BME280;44660;42.664;23.266;2023-02-04T22:24:42;94438.00;;;-1.47;62.24
58879;BME280;44660;42.664;23.266;2023-02-04T22:27:08;94516.50;;;-1.34;60.80
58879;BME280;44660;42.664;23.266;2023-02-04T22:29:33;94465.44;;;-1.59;60.79
58879;BME280;44660;42.664;23.266;2023-02-04T22:31:59;94523.28;;;-1.16;61.02
58879;BME280;44660;42.664;23.266;2023-02-04T22:34:25;94409.19;;;-1.93;62.15
58879;BME280;44660;42.664;23.266;2023-02-04T22:36:51;94530.47;;;-1.18;63.33
58879;BME280;44660;42.664;23.266;2023-02-04T22:39:16;94539.00;;;-0.93;69.37
58879;BME280;44660;42.664;23.266;2023-02-04T22:41:42;94459.16;;;-1.42;67.56
58879;BME280;44660;42.664;23.266;2023-02-04T22:44:07;94523.22;;;-1.00;61.76
58879;BME280;44660;42.664;23.266;2023-02-04T22:46:33;94501.75;;;-1.18;60.52
58879;BME280;44660;42.664;23.266;2023-02-04T22:48:58;94525.53;;;-1.05;60.11
58879;BME280;44660;42.664;23.266;2023-02-04T22:51:23;94508.66;;;-1.25;60.29
58879;BME280;44660;42.664;23.266;2023-02-04T22:53:49;94504.97;;;-1.39;59.77
58879;BME280;44660;42.664;23.266;2023-02-04T22:56:14;94526.94;;;-1.34;59.61
58879;BME280;44660;42.664;23.266;2023-02-04T22:58:40;94535.63;;;-1.41;58.44
58879;BME280;44660;42.664;23.266;2023-02-04T23:01:05;94545.88;;;-1.40;59.02
58879;BME280;44660;42.664;23.266;2023-02-04T23:03:31;94535.44;;;-1.32;59.38
58879;BME280;44660;42.664;23.266;2023-02-04T23:05:57;94481.63;;;-1.72;59.11
58879;BME280;44660;42.664;23.266;2023-02-04T23:08:22;94568.16;;;-1.21;59.30
58879;BME280;44660;42.664;23.266;2023-02-04T23:10:48;94552.47;;;-1.52;59.50
58879;BME280;44660;42.664;23.266;2023-02-04T23:13:13;94558.53;;;-1.60;59.37
58879;BME280;44660;42.664;23.266;2023-02-04T23:15:41;94566.00;;;-1.57;59.50
58879;BME280;44660;42.664;23.266;2023-02-04T23:18:06;94576.22;;;-1.39;59.08
58879;BME280;44660;42.664;23.266;2023-02-04T23:20:31;94502.00;;;-1.76;58.95
58879;BME280;44660;42.664;23.266;2023-02-04T23:22:57;94531.66;;;-1.77;58.77
58879;BME280;44660;42.664;23.266;2023-02-04T23:25:23;94589.28;;;-1.55;59.31
58879;BME280;44660;42.664;23.266;2023-02-04T23:27:48;94577.59;;;-1.68;60.13
58879;BME280;44660;42.664;23.266;2023-02-04T23:30:14;94598.94;;;-1.64;60.82
58879;BME280;44660;42.664;23.266;2023-02-04T23:32:40;94587.88;;;-1.74;62.01
58879;BME280;44660;42.664;23.266;2023-02-04T23:35:05;94577.56;;;-1.59;61.99
58879;BME280;44660;42.664;23.266;2023-02-04T23:37:32;94578.44;;;-1.84;63.04
58879;BME280;44660;42.664;23.266;2023-02-04T23:39:57;94556.47;;;-2.22;64.54
58879;BME280;44660;42.664;23.266;2023-02-04T23:42:23;94587.25;;;-2.01;65.64
58879;BME280;44660;42.664;23.266;2023-02-04T23:44:48;94548.19;;;-2.42;66.50
58879;BME280;44660;42.664;23.266;2023-02-04T23:47:14;94590.66;;;-2.42;67.12
58879;BME280;44660;42.664;23.266;2023-02-04T23:49:39;94559.38;;;-2.58;67.27
58879;BME280;44660;42.664;23.266;2023-02-04T23:52:05;94515.09;;;-2.83;67.57
58879;BME280;44660;42.664;23.266;2023-02-04T23:54:32;94569.47;;;-2.64;67.58
58879;BME280;44660;42.664;23.266;2023-02-04T23:56:58;94573.69;;;-2.79;68.01
58879;BME280;44660;42.664;23.266;2023-02-04T23:59:23;94626.16;;;-2.33;68.31
